Garden City, South Carolina
Current Conditions -  °F | °C
As of 1:15 AM on Wednesday 22 Oct 2014 (Local Time) from KMYR Reporting Station
Overcast Overcast  
Wind Chill: 64°   Ceiling: 8500
Heat Index: 64°   Visibility: 10mi
Dew Point: 48°   Wind: 12mph
Humidity: 56%   Direction: 340°NNW
Pressure: 29.91"   Gusts: NA
Location:  33.5501°N, 79.0592°W
Report Text: KMYR 220515Z AUTO 34010KT 10SM OVC085 18/09 A2991 RMK AO1
Loading
Personal Weather Stations






























Interactive Weather Map
Tropical Storm Tracking
New forecast layout! Learn more

10-Day Weather Forecast

Advertisements
Track Severe Weather on mobile